createdAt,value
2022-11-06T00:00:28.345Z,1006.70
2022-11-06T00:01:28.392Z,1006.73
2022-11-06T00:02:28.428Z,1006.65
2022-11-06T00:03:28.444Z,1006.71
2022-11-06T00:04:28.302Z,1006.73
2022-11-06T00:05:28.300Z,1006.59
2022-11-06T00:06:28.300Z,1006.66
2022-11-06T00:07:28.286Z,1006.74
2022-11-06T00:08:28.292Z,1006.68
2022-11-06T00:09:28.267Z,1006.66
2022-11-06T00:10:28.254Z,1006.69
2022-11-06T00:11:28.232Z,1006.68
2022-11-06T00:12:28.234Z,1006.73
2022-11-06T00:13:28.253Z,1006.70
2022-11-06T00:14:28.225Z,1006.70
2022-11-06T00:15:28.177Z,1006.68
2022-11-06T00:16:28.207Z,1006.75
2022-11-06T00:17:28.187Z,1006.66
2022-11-06T00:18:28.169Z,1006.63
2022-11-06T00:19:29.109Z,1006.61
2022-11-06T00:20:28.124Z,1006.59
2022-11-06T00:21:28.113Z,1006.58
2022-11-06T00:22:28.103Z,1006.59
2022-11-06T00:23:28.115Z,1006.58
2022-11-06T00:24:28.092Z,1006.60
2022-11-06T00:25:28.071Z,1006.59
2022-11-06T00:26:28.057Z,1006.61
2022-11-06T00:27:28.084Z,1006.67
2022-11-06T00:28:28.079Z,1006.62
2022-11-06T00:29:28.023Z,1006.64
2022-11-06T00:30:28.021Z,1006.65
2022-11-06T00:31:28.070Z,1006.65
2022-11-06T00:32:28.014Z,1006.65
2022-11-06T00:33:28.032Z,1006.63
2022-11-06T00:34:27.986Z,1006.68
2022-11-06T00:35:27.975Z,1006.73
2022-11-06T00:36:27.960Z,1006.66
2022-11-06T00:37:27.962Z,1006.71
2022-11-06T00:38:27.987Z,1006.65
2022-11-06T00:39:27.943Z,1006.70
2022-11-06T00:40:27.935Z,1006.62
2022-11-06T00:41:27.900Z,1006.67
2022-11-06T00:42:27.910Z,1006.67
2022-11-06T00:43:27.870Z,1006.64
2022-11-06T00:44:27.873Z,1006.67
2022-11-06T00:45:27.862Z,1006.65
2022-11-06T00:46:27.876Z,1006.60
2022-11-06T00:47:27.851Z,1006.59
2022-11-06T00:48:27.838Z,1006.56
2022-11-06T00:49:27.875Z,1006.53
2022-11-06T00:50:27.793Z,1006.52
2022-11-06T00:51:27.826Z,1006.56
2022-11-06T00:52:27.779Z,1006.48
2022-11-06T00:53:27.777Z,1006.46
2022-11-06T00:54:27.745Z,1006.45
2022-11-06T00:55:27.741Z,1006.42
2022-11-06T00:56:27.731Z,1006.49
2022-11-06T00:57:27.809Z,1006.48
2022-11-06T00:58:27.760Z,1006.49
2022-11-06T00:59:27.711Z,1006.43
2022-11-06T01:00:27.781Z,1006.46
2022-11-06T01:01:27.864Z,1006.47
2022-11-06T01:02:27.860Z,1006.46
2022-11-06T01:03:27.647Z,1006.46
2022-11-06T01:04:27.642Z,1006.54
2022-11-06T01:05:27.672Z,1006.55
2022-11-06T01:06:27.621Z,1006.53
2022-11-06T01:07:27.629Z,1006.44
2022-11-06T01:08:27.598Z,1006.49
2022-11-06T01:09:27.584Z,1006.51
2022-11-06T01:10:27.579Z,1006.48
2022-11-06T01:11:27.583Z,1006.48
2022-11-06T01:12:27.551Z,1006.42
2022-11-06T01:13:27.553Z,1006.48
2022-11-06T01:14:27.533Z,1006.46
2022-11-06T01:15:27.585Z,1006.53
2022-11-06T01:16:27.549Z,1006.47
2022-11-06T01:17:27.528Z,1006.49
2022-11-06T01:18:27.488Z,1006.50
2022-11-06T01:19:27.492Z,1006.50
2022-11-06T01:20:27.468Z,1006.49
2022-11-06T01:21:27.449Z,1006.50
2022-11-06T01:22:27.453Z,1006.50
2022-11-06T01:23:27.465Z,1006.48
2022-11-06T01:24:27.527Z,1006.46
2022-11-06T01:25:27.415Z,1006.48
2022-11-06T01:26:37.682Z,1006.52
2022-11-06T01:27:27.837Z,1006.50
2022-11-06T01:28:27.395Z,1006.47
2022-11-06T01:29:27.390Z,1006.53
2022-11-06T01:30:27.366Z,1006.51
2022-11-06T01:31:27.365Z,1006.48
2022-11-06T01:32:27.346Z,1006.51
2022-11-06T01:33:27.379Z,1006.49
2022-11-06T01:34:27.337Z,1006.47
2022-11-06T01:35:27.319Z,1006.51
2022-11-06T01:36:27.286Z,1006.49
2022-11-06T01:37:27.280Z,1006.48
2022-11-06T01:38:27.308Z,1006.51
2022-11-06T01:39:27.279Z,1006.43
2022-11-06T01:40:27.273Z,1006.47
2022-11-06T01:41:27.234Z,1006.44
2022-11-06T01:42:27.243Z,1006.40
2022-11-06T01:43:27.211Z,1006.34
2022-11-06T01:44:27.252Z,1006.37
2022-11-06T01:45:27.213Z,1006.24
2022-11-06T01:46:27.176Z,1006.32
2022-11-06T01:47:27.248Z,1006.24
2022-11-06T01:48:27.278Z,1006.25
2022-11-06T01:49:27.145Z,1006.26
2022-11-06T01:50:27.154Z,1006.21
2022-11-06T01:51:27.156Z,1006.17
2022-11-06T01:52:27.152Z,1006.17
2022-11-06T01:53:27.115Z,1006.15
2022-11-06T01:54:27.089Z,1006.23
2022-11-06T01:55:27.225Z,1006.21
2022-11-06T01:56:27.132Z,1006.25
2022-11-06T01:57:27.067Z,1006.18
2022-11-06T01:58:27.045Z,1006.19
2022-11-06T01:59:27.038Z,1006.15
2022-11-06T02:00:27.047Z,1006.10
2022-11-06T02:01:27.134Z,1006.14
2022-11-06T02:02:27.152Z,1006.10
2022-11-06T02:03:27.024Z,1006.08
2022-11-06T02:04:27.094Z,1006.05
2022-11-06T02:05:26.971Z,1006.07
2022-11-06T02:06:26.997Z,1006.03
2022-11-06T02:07:26.952Z,1006.05
2022-11-06T02:08:26.942Z,1006.04
2022-11-06T02:09:26.948Z,1006.05
2022-11-06T02:10:26.945Z,1006.01
2022-11-06T02:11:27.089Z,1006.05
2022-11-06T02:12:26.897Z,1005.99
2022-11-06T02:13:26.895Z,1006.04
2022-11-06T02:14:26.905Z,1006.00
2022-11-06T02:15:26.883Z,1006.01
2022-11-06T02:16:26.883Z,1005.96
2022-11-06T02:17:26.835Z,1006.01
2022-11-06T02:18:26.900Z,1005.96
2022-11-06T02:19:26.814Z,1005.93
2022-11-06T02:20:26.926Z,1005.94
2022-11-06T02:21:26.816Z,1005.98
2022-11-06T02:22:26.792Z,1005.89
2022-11-06T02:23:26.780Z,1005.91
2022-11-06T02:24:26.768Z,1005.88
2022-11-06T02:25:26.773Z,1005.87
2022-11-06T02:26:26.753Z,1005.92
2022-11-06T02:27:26.774Z,1005.84
2022-11-06T02:28:26.736Z,1005.90
2022-11-06T02:29:26.706Z,1005.82
2022-11-06T02:30:26.719Z,1005.83
2022-11-06T02:31:26.713Z,1005.81
2022-11-06T02:32:26.683Z,1005.73
2022-11-06T02:33:26.660Z,1005.74
2022-11-06T02:34:26.649Z,1005.75
2022-11-06T02:35:26.710Z,1005.75
2022-11-06T02:36:26.647Z,1005.73
2022-11-06T02:37:26.624Z,1005.69
2022-11-06T02:38:26.638Z,1005.71
2022-11-06T02:39:26.597Z,1005.74
2022-11-06T02:40:26.612Z,1005.80
2022-11-06T02:41:26.580Z,1005.78
2022-11-06T02:42:26.569Z,1005.75
2022-11-06T02:43:26.560Z,1005.73
2022-11-06T02:44:26.563Z,1005.76
2022-11-06T02:45:26.557Z,1005.74
2022-11-06T02:46:26.521Z,1005.71
2022-11-06T02:47:26.523Z,1005.71
2022-11-06T02:48:26.498Z,1005.76
2022-11-06T02:49:26.497Z,1005.78
2022-11-06T02:50:26.489Z,1005.68
2022-11-06T02:51:26.500Z,1005.71
2022-11-06T02:52:26.490Z,1005.72
2022-11-06T02:53:26.444Z,1005.79
2022-11-06T02:54:26.438Z,1005.75
2022-11-06T02:55:26.440Z,1005.76
2022-11-06T02:56:26.410Z,1005.73
2022-11-06T02:57:26.440Z,1005.80
2022-11-06T02:58:26.393Z,1005.76
2022-11-06T02:59:26.386Z,1005.67
2022-11-06T03:00:26.363Z,1005.77
2022-11-06T03:01:26.536Z,1005.73
2022-11-06T03:02:26.629Z,1005.74
2022-11-06T03:03:26.330Z,1005.76
2022-11-06T03:04:26.392Z,1005.75
2022-11-06T03:05:26.307Z,1005.81
2022-11-06T03:06:26.347Z,1005.79
2022-11-06T03:07:26.323Z,1005.74
2022-11-06T03:08:26.292Z,1005.78
2022-11-06T03:09:26.265Z,1005.88
2022-11-06T03:10:26.269Z,1005.83
2022-11-06T03:11:26.274Z,1005.85
2022-11-06T03:12:26.237Z,1005.92
2022-11-06T03:13:26.260Z,1005.84
2022-11-06T03:14:26.217Z,1005.84
2022-11-06T03:15:26.217Z,1005.85
2022-11-06T03:16:26.192Z,1005.85
2022-11-06T03:17:26.177Z,1005.87
2022-11-06T03:18:26.190Z,1005.87
2022-11-06T03:19:26.170Z,1005.80
2022-11-06T03:20:26.192Z,1005.84
2022-11-06T03:21:26.128Z,1005.78
2022-11-06T03:22:26.142Z,1005.79
2022-11-06T03:23:26.159Z,1005.79
2022-11-06T03:24:30.838Z,1005.78
2022-11-06T03:25:27.107Z,1005.77
2022-11-06T03:26:26.084Z,1005.80
2022-11-06T03:27:26.065Z,1005.83
2022-11-06T03:28:26.092Z,1005.73
2022-11-06T03:29:26.070Z,1005.75
2022-11-06T03:30:26.053Z,1005.78
2022-11-06T03:31:26.054Z,1005.78
2022-11-06T03:32:26.023Z,1005.75
2022-11-06T03:33:26.058Z,1005.81
2022-11-06T03:34:26.040Z,1005.72
2022-11-06T03:35:25.983Z,1005.73
2022-11-06T03:36:26.006Z,1005.76
2022-11-06T03:37:25.955Z,1005.74
2022-11-06T03:38:25.957Z,1005.75
2022-11-06T03:39:25.967Z,1005.77
2022-11-06T03:40:26.038Z,1005.76
2022-11-06T03:41:25.928Z,1005.72
2022-11-06T03:42:25.898Z,1005.71
2022-11-06T03:43:25.993Z,1005.76
2022-11-06T03:44:25.879Z,1005.73
2022-11-06T03:45:25.871Z,1005.74
2022-11-06T03:46:25.887Z,1005.72
2022-11-06T03:47:25.902Z,1005.69
2022-11-06T03:48:25.871Z,1005.71
2022-11-06T03:49:25.837Z,1005.72
2022-11-06T03:50:25.812Z,1005.62
2022-11-06T03:51:25.825Z,1005.66
2022-11-06T03:52:25.821Z,1005.68
2022-11-06T03:53:25.811Z,1005.64
2022-11-06T03:54:25.771Z,1005.60
2022-11-06T03:55:25.764Z,1005.70
2022-11-06T03:56:25.833Z,1005.61
2022-11-06T03:57:25.746Z,1005.71
2022-11-06T03:58:25.809Z,1005.70
2022-11-06T03:59:25.769Z,1005.63
2022-11-06T04:00:25.700Z,1005.63
2022-11-06T04:01:25.781Z,1005.63
2022-11-06T04:02:26.034Z,1005.65
2022-11-06T04:03:25.771Z,1005.67
2022-11-06T04:04:25.672Z,1005.66
2022-11-06T04:05:25.674Z,1005.65
2022-11-06T04:06:25.648Z,1005.70
2022-11-06T04:07:25.630Z,1005.66
2022-11-06T04:08:25.624Z,1005.67
2022-11-06T04:09:25.648Z,1005.58
2022-11-06T04:10:25.604Z,1005.57
2022-11-06T04:11:25.622Z,1005.65
2022-11-06T04:12:25.596Z,1005.58
2022-11-06T04:13:25.605Z,1005.56
2022-11-06T04:14:25.561Z,1005.60
2022-11-06T04:15:25.562Z,1005.51
2022-11-06T04:16:25.549Z,1005.54
2022-11-06T04:17:25.532Z,1005.55
2022-11-06T04:18:25.554Z,1005.55
2022-11-06T04:19:25.497Z,1005.54
2022-11-06T04:20:25.499Z,1005.50
2022-11-06T04:21:25.587Z,1005.53
2022-11-06T04:22:25.505Z,1005.54
2022-11-06T04:23:25.468Z,1005.56
2022-11-06T04:24:25.438Z,1005.58
2022-11-06T04:25:25.447Z,1005.51
2022-11-06T04:26:25.439Z,1005.48
2022-11-06T04:27:25.409Z,1005.53
2022-11-06T04:28:25.424Z,1005.50
2022-11-06T04:29:25.455Z,1005.43
2022-11-06T04:30:25.372Z,1005.43
2022-11-06T04:31:25.371Z,1005.41
2022-11-06T04:32:25.374Z,1005.36
2022-11-06T04:33:25.368Z,1005.37
2022-11-06T04:34:25.352Z,1005.44
2022-11-06T04:35:25.370Z,1005.45
2022-11-06T04:36:25.308Z,1005.42
2022-11-06T04:37:25.296Z,1005.48
2022-11-06T04:38:25.303Z,1005.42
2022-11-06T04:39:25.283Z,1005.40
2022-11-06T04:40:25.288Z,1005.43
2022-11-06T04:41:25.322Z,1005.44
2022-11-06T04:42:25.244Z,1005.48
2022-11-06T04:43:25.260Z,1005.46
2022-11-06T04:44:25.240Z,1005.45
2022-11-06T04:45:25.260Z,1005.51
2022-11-06T04:46:25.216Z,1005.52
2022-11-06T04:47:25.226Z,1005.49
2022-11-06T04:48:25.181Z,1005.44
2022-11-06T04:49:25.204Z,1005.53
2022-11-06T04:50:25.184Z,1005.49
2022-11-06T04:51:25.183Z,1005.44
2022-11-06T04:52:25.163Z,1005.41
2022-11-06T04:53:25.126Z,1005.45
2022-11-06T04:54:25.125Z,1005.41
2022-11-06T04:55:25.127Z,1005.38
2022-11-06T04:56:25.865Z,1005.40
2022-11-06T04:57:25.130Z,1005.42
2022-11-06T04:58:25.065Z,1005.35
2022-11-06T04:59:25.058Z,1005.40
2022-11-06T05:00:25.064Z,1005.34
2022-11-06T05:01:25.209Z,1005.31
2022-11-06T05:02:25.101Z,1005.31
2022-11-06T05:03:25.041Z,1005.27
2022-11-06T05:04:25.052Z,1005.21
2022-11-06T05:05:24.992Z,1005.23
2022-11-06T05:06:29.560Z,1005.21
2022-11-06T05:07:25.009Z,1005.19
2022-11-06T05:08:24.961Z,1005.17
2022-11-06T05:09:25.024Z,1005.20
2022-11-06T05:10:24.934Z,1005.17
2022-11-06T05:11:24.928Z,1005.21
2022-11-06T05:12:24.949Z,1005.16
2022-11-06T05:13:24.908Z,1005.13
2022-11-06T05:14:24.927Z,1005.18
2022-11-06T05:15:24.910Z,1005.15
2022-11-06T05:16:24.894Z,1005.12
2022-11-06T05:17:24.883Z,1005.11
2022-11-06T05:18:24.897Z,1005.12
2022-11-06T05:19:24.842Z,1005.17
2022-11-06T05:20:24.837Z,1005.15
2022-11-06T05:21:24.816Z,1005.10
2022-11-06T05:22:24.847Z,1005.14
2022-11-06T05:23:24.878Z,1005.12
2022-11-06T05:24:24.790Z,1005.08
2022-11-06T05:25:24.778Z,1005.10
2022-11-06T05:26:24.775Z,1005.11
2022-11-06T05:27:24.783Z,1005.10
2022-11-06T05:28:24.739Z,1005.09
2022-11-06T05:29:24.757Z,1005.10
2022-11-06T05:30:24.738Z,1005.12
2022-11-06T05:31:24.715Z,1005.09
2022-11-06T05:32:24.740Z,1005.13
2022-11-06T05:33:24.747Z,1005.11
2022-11-06T05:34:24.672Z,1005.17
2022-11-06T05:35:24.663Z,1005.16
2022-11-06T05:36:24.730Z,1005.12
2022-11-06T05:37:24.674Z,1005.12
2022-11-06T05:38:24.639Z,1005.16
2022-11-06T05:39:24.648Z,1005.13
2022-11-06T05:40:24.651Z,1005.08
2022-11-06T05:41:24.638Z,1005.12
2022-11-06T05:42:24.589Z,1005.06
2022-11-06T05:43:24.589Z,1005.07
2022-11-06T05:44:24.575Z,1005.06
2022-11-06T05:45:24.562Z,1005.00
2022-11-06T05:46:47.080Z,1005.01
2022-11-06T05:47:24.559Z,1005.06
2022-11-06T05:48:24.548Z,1005.13
2022-11-06T05:49:24.524Z,1005.09
2022-11-06T05:50:24.555Z,1005.03
2022-11-06T05:51:24.499Z,1005.05
2022-11-06T05:52:24.504Z,1005.01
2022-11-06T05:53:24.471Z,1005.00
2022-11-06T05:54:24.459Z,1005.02
2022-11-06T05:55:25.437Z,1005.00
2022-11-06T05:56:24.433Z,1005.04
2022-11-06T05:57:24.431Z,1005.04
2022-11-06T05:58:24.478Z,1005.03
2022-11-06T05:59:24.421Z,1005.06
2022-11-06T06:00:24.412Z,1005.11
2022-11-06T06:01:24.439Z,1005.10
2022-11-06T06:02:24.656Z,1005.10
2022-11-06T06:03:24.371Z,1005.13
2022-11-06T06:04:24.364Z,1005.17
2022-11-06T06:05:24.384Z,1005.14
2022-11-06T06:06:24.323Z,1005.17
2022-11-06T06:07:24.359Z,1005.21
2022-11-06T06:08:24.304Z,1005.18
2022-11-06T06:09:24.300Z,1005.23
2022-11-06T06:10:24.315Z,1005.23
2022-11-06T06:11:24.301Z,1005.16
2022-11-06T06:12:24.262Z,1005.21
2022-11-06T06:13:24.259Z,1005.28
2022-11-06T06:14:24.236Z,1005.26
2022-11-06T06:15:24.227Z,1005.25
2022-11-06T06:16:24.332Z,1005.28
2022-11-06T06:17:24.236Z,1005.25
2022-11-06T06:18:24.199Z,1005.33
2022-11-06T06:19:24.217Z,1005.31
2022-11-06T06:20:24.192Z,1005.34
2022-11-06T06:21:24.167Z,1005.40
2022-11-06T06:22:24.158Z,1005.36
2022-11-06T06:23:24.151Z,1005.44
2022-11-06T06:24:24.315Z,1005.42
2022-11-06T06:25:24.207Z,1005.44
2022-11-06T06:26:24.108Z,1005.44
2022-11-06T06:27:24.096Z,1005.41
2022-11-06T06:28:24.104Z,1005.40
2022-11-06T06:29:24.112Z,1005.48
2022-11-06T06:30:24.069Z,1005.51
2022-11-06T06:31:24.061Z,1005.51
2022-11-06T06:32:24.076Z,1005.54
2022-11-06T06:33:24.032Z,1005.52
2022-11-06T06:34:24.062Z,1005.56
2022-11-06T06:35:24.015Z,1005.47
2022-11-06T06:36:24.035Z,1005.53
2022-11-06T06:37:24.010Z,1005.54
2022-11-06T06:38:24.012Z,1005.52
2022-11-06T06:39:23.973Z,1005.47
2022-11-06T06:40:23.967Z,1005.53
2022-11-06T06:41:23.970Z,1005.50
2022-11-06T06:42:27.339Z,1005.46
2022-11-06T06:43:23.928Z,1005.43
2022-11-06T06:44:23.955Z,1005.45
2022-11-06T06:45:23.915Z,1005.46
2022-11-06T06:46:23.923Z,1005.52
2022-11-06T06:47:23.881Z,1005.47
2022-11-06T06:48:23.884Z,1005.49
2022-11-06T06:49:23.887Z,1005.48
2022-11-06T06:50:23.893Z,1005.52
2022-11-06T06:51:24.357Z,1005.51
2022-11-06T06:52:23.839Z,1005.49
2022-11-06T06:53:23.820Z,1005.51
2022-11-06T06:54:23.814Z,1005.47
2022-11-06T06:55:23.794Z,1005.51
2022-11-06T06:56:23.792Z,1005.52
2022-11-06T06:57:23.782Z,1005.58
2022-11-06T06:58:24.146Z,1005.55
2022-11-06T06:59:23.756Z,1005.61
2022-11-06T07:00:23.758Z,1005.60
2022-11-06T07:01:23.946Z,1005.60
2022-11-06T07:02:23.839Z,1005.68
2022-11-06T07:03:23.715Z,1005.65
2022-11-06T07:04:23.691Z,1005.63
2022-11-06T07:05:23.706Z,1005.57
2022-11-06T07:06:23.694Z,1005.63
2022-11-06T07:07:23.665Z,1005.60
2022-11-06T07:08:23.746Z,1005.62
2022-11-06T07:09:23.644Z,1005.65
2022-11-06T07:10:23.628Z,1005.65
2022-11-06T07:11:23.637Z,1005.63
2022-11-06T07:12:23.644Z,1005.65
2022-11-06T07:13:23.595Z,1005.65
2022-11-06T07:14:23.608Z,1005.65
2022-11-06T07:15:23.583Z,1005.65
2022-11-06T07:16:23.561Z,1005.66
2022-11-06T07:17:23.644Z,1005.70
2022-11-06T07:18:23.564Z,1005.63
2022-11-06T07:19:23.534Z,1005.66
2022-11-06T07:20:23.541Z,1005.59
2022-11-06T07:21:23.506Z,1005.54
2022-11-06T07:22:30.937Z,1005.61
2022-11-06T07:23:23.495Z,1005.59
2022-11-06T07:24:23.492Z,1005.51
2022-11-06T07:25:23.485Z,1005.54
2022-11-06T07:26:23.450Z,1005.52
2022-11-06T07:27:23.446Z,1005.57
2022-11-06T07:28:23.463Z,1005.49
2022-11-06T07:29:23.436Z,1005.49
2022-11-06T07:30:23.438Z,1005.47
2022-11-06T07:31:23.412Z,1005.51
2022-11-06T07:32:23.384Z,1005.47
2022-11-06T07:33:23.439Z,1005.52
2022-11-06T07:34:23.374Z,1005.46
2022-11-06T07:35:23.380Z,1005.51
2022-11-06T07:36:23.360Z,1005.45
2022-11-06T07:37:23.342Z,1005.43
2022-11-06T07:38:23.355Z,1005.50
2022-11-06T07:39:23.327Z,1005.52
2022-11-06T07:40:23.332Z,1005.42
2022-11-06T07:41:23.320Z,1005.51
2022-11-06T07:42:23.290Z,1005.44
2022-11-06T07:43:23.266Z,1005.47
2022-11-06T07:44:23.271Z,1005.47
2022-11-06T07:45:23.258Z,1005.49
2022-11-06T07:46:23.247Z,1005.39
2022-11-06T07:47:23.356Z,1005.41
2022-11-06T07:48:23.256Z,1005.50
2022-11-06T07:49:23.198Z,1005.40
2022-11-06T07:50:23.186Z,1005.45
2022-11-06T07:51:23.208Z,1005.53
2022-11-06T07:52:23.176Z,1005.46
2022-11-06T07:53:23.161Z,1005.50
2022-11-06T07:54:23.167Z,1005.44
2022-11-06T07:55:23.134Z,1005.40
2022-11-06T07:56:23.145Z,1005.43
2022-11-06T07:57:23.143Z,1005.37
2022-11-06T07:58:23.110Z,1005.34
2022-11-06T07:59:23.144Z,1005.35
2022-11-06T08:00:23.113Z,1005.42
2022-11-06T08:01:23.280Z,1005.35
2022-11-06T08:02:23.094Z,1005.41
2022-11-06T08:03:23.058Z,1005.43
2022-11-06T08:04:23.032Z,1005.46
2022-11-06T08:05:23.039Z,1005.42
2022-11-06T08:06:23.043Z,1005.42
2022-11-06T08:07:23.021Z,1005.40
2022-11-06T08:08:22.995Z,1005.34
2022-11-06T08:09:22.995Z,1005.33
2022-11-06T08:10:22.998Z,1005.26
2022-11-06T08:11:22.964Z,1005.30
2022-11-06T08:12:22.969Z,1005.25
2022-11-06T08:13:22.963Z,1005.26
2022-11-06T08:14:22.956Z,1005.22
2022-11-06T08:15:22.933Z,1005.33
2022-11-06T08:16:22.906Z,1005.27
2022-11-06T08:17:22.908Z,1005.28
2022-11-06T08:18:22.882Z,1005.25
2022-11-06T08:19:22.895Z,1005.24
2022-11-06T08:20:22.860Z,1005.27
2022-11-06T08:21:22.962Z,1005.27
2022-11-06T08:22:22.866Z,1005.30
2022-11-06T08:23:22.833Z,1005.17
2022-11-06T08:24:22.822Z,1005.15
2022-11-06T08:25:22.800Z,1005.15
2022-11-06T08:26:22.833Z,1005.26
2022-11-06T08:27:22.814Z,1005.22
2022-11-06T08:28:22.788Z,1005.26
2022-11-06T08:29:22.790Z,1005.25
2022-11-06T08:30:22.749Z,1005.29
2022-11-06T08:31:22.826Z,1005.21
2022-11-06T08:32:22.735Z,1005.29
2022-11-06T08:33:22.749Z,1005.25
2022-11-06T08:34:22.707Z,1005.30
2022-11-06T08:35:22.690Z,1005.22
2022-11-06T08:36:22.689Z,1005.20
2022-11-06T08:37:22.686Z,1005.27
2022-11-06T08:38:22.667Z,1005.23
2022-11-06T08:39:22.671Z,1005.20
2022-11-06T08:40:26.652Z,1005.19
2022-11-06T08:41:22.624Z,1005.22
2022-11-06T08:42:23.438Z,1005.20
2022-11-06T08:43:22.605Z,1005.18
2022-11-06T08:44:22.643Z,1005.25
2022-11-06T08:45:22.639Z,1005.16
2022-11-06T08:46:22.570Z,1005.15
2022-11-06T08:47:22.557Z,1005.17
2022-11-06T08:48:22.563Z,1005.11
2022-11-06T08:49:22.579Z,1005.07
2022-11-06T08:50:22.542Z,1005.13
2022-11-06T08:51:22.518Z,1005.09
2022-11-06T08:52:22.510Z,1005.09
2022-11-06T08:53:22.554Z,1005.07
2022-11-06T08:54:22.521Z,1005.06
2022-11-06T08:55:22.486Z,1005.00
2022-11-06T08:56:22.478Z,1005.01
2022-11-06T08:57:22.457Z,1005.01
2022-11-06T08:58:22.452Z,1004.95
2022-11-06T08:59:22.575Z,1004.99
2022-11-06T09:00:22.561Z,1004.92
2022-11-06T09:01:22.515Z,1004.94
2022-11-06T09:02:22.507Z,1004.93
2022-11-06T09:03:22.445Z,1004.93
2022-11-06T09:04:22.368Z,1004.87
2022-11-06T09:05:22.372Z,1004.92
2022-11-06T09:06:22.367Z,1004.90
2022-11-06T09:07:22.353Z,1004.92
2022-11-06T09:08:22.323Z,1004.93
2022-11-06T09:09:22.311Z,1004.85
2022-11-06T09:10:22.468Z,1004.91
2022-11-06T09:11:22.322Z,1004.83
2022-11-06T09:12:22.301Z,1004.81
2022-11-06T09:13:22.284Z,1004.83
2022-11-06T09:14:22.266Z,1004.79
2022-11-06T09:15:22.246Z,1004.72
2022-11-06T09:16:22.337Z,1004.82
2022-11-06T09:17:22.226Z,1004.73
2022-11-06T09:18:22.225Z,1004.73
2022-11-06T09:19:22.231Z,1004.72
2022-11-06T09:20:22.238Z,1004.80
2022-11-06T09:21:22.193Z,1004.70
2022-11-06T09:22:22.197Z,1004.72
2022-11-06T09:23:22.162Z,1004.65
2022-11-06T09:24:43.147Z,1004.62
2022-11-06T09:25:22.134Z,1004.60
2022-11-06T09:26:22.191Z,1004.67
2022-11-06T09:27:22.123Z,1004.75
2022-11-06T09:28:22.125Z,1004.64
2022-11-06T09:29:22.096Z,1004.58
2022-11-06T09:30:22.100Z,1004.66
2022-11-06T09:31:22.104Z,1004.59
2022-11-06T09:32:22.079Z,1004.67
2022-11-06T09:33:22.118Z,1004.61
2022-11-06T09:34:22.033Z,1004.58
2022-11-06T09:35:22.029Z,1004.55
2022-11-06T09:36:22.043Z,1004.57
2022-11-06T09:37:22.000Z,1004.54
2022-11-06T09:38:21.989Z,1004.59
2022-11-06T09:39:22.368Z,1004.65
2022-11-06T09:40:21.971Z,1004.66
2022-11-06T09:41:21.977Z,1004.66
2022-11-06T09:42:21.944Z,1004.63
2022-11-06T09:43:43.124Z,1004.67
2022-11-06T09:44:22.953Z,1004.64
2022-11-06T09:45:21.922Z,1004.68
2022-11-06T09:46:21.928Z,1004.67
2022-11-06T09:47:21.910Z,1004.66
2022-11-06T09:48:21.976Z,1004.59
2022-11-06T09:49:21.879Z,1004.66
2022-11-06T09:50:21.872Z,1004.60
2022-11-06T09:51:21.901Z,1004.54
2022-11-06T09:52:21.841Z,1004.58
2022-11-06T09:53:21.832Z,1004.59
2022-11-06T09:54:21.811Z,1004.49
2022-11-06T09:55:21.806Z,1004.50
2022-11-06T09:56:21.796Z,1004.50
2022-11-06T09:57:21.807Z,1004.47
2022-11-06T09:58:21.808Z,1004.53
2022-11-06T09:59:21.772Z,1004.48
2022-11-06T10:00:21.808Z,1004.50
2022-11-06T10:01:26.867Z,1004.45
2022-11-06T10:02:21.857Z,1004.52
2022-11-06T10:03:21.754Z,1004.46
2022-11-06T10:04:21.745Z,1004.43
2022-11-06T10:05:21.716Z,1004.41
2022-11-06T10:06:21.713Z,1004.45
2022-11-06T10:07:21.690Z,1004.40
2022-11-06T10:08:21.675Z,1004.42
2022-11-06T10:09:21.673Z,1004.37
2022-11-06T10:10:21.662Z,1004.34
2022-11-06T10:11:21.646Z,1004.33
2022-11-06T10:12:21.613Z,1004.36
2022-11-06T10:13:21.906Z,1004.34
2022-11-06T10:14:21.600Z,1004.25
2022-11-06T10:15:21.614Z,1004.25
2022-11-06T10:16:21.576Z,1004.26
2022-11-06T10:17:21.558Z,1004.28
2022-11-06T10:18:21.621Z,1004.28
2022-11-06T10:19:21.543Z,1004.28
2022-11-06T10:20:26.876Z,1004.27
2022-11-06T10:21:22.524Z,1004.12
2022-11-06T10:22:21.519Z,1004.15
2022-11-06T10:23:21.498Z,1004.15
2022-11-06T10:24:21.526Z,1004.11
2022-11-06T10:25:21.478Z,1004.16
2022-11-06T10:26:21.488Z,1004.15
2022-11-06T10:27:21.452Z,1004.11
2022-11-06T10:28:21.447Z,1004.16
2022-11-06T10:29:21.526Z,1004.13
2022-11-06T10:30:21.441Z,1004.09
2022-11-06T10:31:21.414Z,1004.08
2022-11-06T10:32:21.404Z,1004.07
2022-11-06T10:33:21.397Z,1004.10
2022-11-06T10:34:21.422Z,1004.08
2022-11-06T10:35:21.405Z,1004.14
2022-11-06T10:36:21.390Z,1004.08
2022-11-06T10:37:21.357Z,1004.07
2022-11-06T10:38:21.328Z,1004.10
2022-11-06T10:39:21.328Z,1004.10
2022-11-06T10:40:21.392Z,1004.08
2022-11-06T10:41:21.308Z,1004.14
2022-11-06T10:42:21.286Z,1004.06
2022-11-06T10:43:21.364Z,1004.05
2022-11-06T10:44:21.271Z,1004.01
2022-11-06T10:45:21.256Z,1004.00
2022-11-06T10:46:21.283Z,1003.99
2022-11-06T10:47:21.282Z,1003.94
2022-11-06T10:48:23.775Z,1004.00
2022-11-06T10:49:21.240Z,1003.92
2022-11-06T10:50:21.201Z,1003.96
2022-11-06T10:51:21.198Z,1003.89
2022-11-06T10:52:21.204Z,1003.91
2022-11-06T10:53:21.183Z,1003.88
2022-11-06T10:54:21.154Z,1003.94
2022-11-06T10:55:21.145Z,1003.93
2022-11-06T10:56:21.530Z,1003.96
2022-11-06T10:57:21.138Z,1003.88
2022-11-06T10:58:21.142Z,1003.88
2022-11-06T10:59:21.102Z,1003.86
2022-11-06T11:00:21.099Z,1003.79
2022-11-06T11:01:21.228Z,1003.77
2022-11-06T11:02:21.187Z,1003.77
2022-11-06T11:03:21.083Z,1003.83
2022-11-06T11:04:21.049Z,1003.85
2022-11-06T11:05:21.052Z,1003.79
2022-11-06T11:06:21.106Z,1003.74
2022-11-06T11:07:21.885Z,1003.70
2022-11-06T11:08:21.027Z,1003.69
2022-11-06T11:09:20.989Z,1003.72
2022-11-06T11:10:21.046Z,1003.75
2022-11-06T11:11:20.975Z,1003.71
2022-11-06T11:12:20.984Z,1003.75
2022-11-06T11:13:20.988Z,1003.76
2022-11-06T11:14:20.955Z,1003.67
2022-11-06T11:15:20.947Z,1003.66
2022-11-06T11:16:20.925Z,1003.58
2022-11-06T11:17:20.912Z,1003.54
2022-11-06T11:18:20.900Z,1003.52
2022-11-06T11:19:20.879Z,1003.46
2022-11-06T11:20:20.882Z,1003.46
2022-11-06T11:21:20.961Z,1003.51
2022-11-06T11:22:20.851Z,1003.44
2022-11-06T11:23:20.900Z,1003.51
2022-11-06T11:24:20.836Z,1003.50
2022-11-06T11:25:20.821Z,1003.49
2022-11-06T11:26:20.827Z,1003.51
2022-11-06T11:27:20.822Z,1003.52
2022-11-06T11:28:20.794Z,1003.55
2022-11-06T11:29:20.790Z,1003.60
2022-11-06T11:30:20.757Z,1003.52
2022-11-06T11:31:20.859Z,1003.40
2022-11-06T11:32:20.753Z,1003.39
2022-11-06T11:33:20.741Z,1003.25
2022-11-06T11:34:20.732Z,1003.26
2022-11-06T11:35:20.705Z,1003.28
2022-11-06T11:36:20.700Z,1003.17
2022-11-06T11:37:20.700Z,1003.24
2022-11-06T11:38:20.684Z,1003.27
2022-11-06T11:39:20.666Z,1003.19
2022-11-06T11:40:20.966Z,1003.11
2022-11-06T11:41:20.650Z,1003.22
2022-11-06T11:42:20.651Z,1003.12
2022-11-06T11:43:20.738Z,1003.07
2022-11-06T11:44:20.607Z,1003.14
2022-11-06T11:45:20.600Z,1003.16
2022-11-06T11:46:20.600Z,1003.11
2022-11-06T11:47:20.572Z,1003.14
2022-11-06T11:48:20.572Z,1003.16
2022-11-06T11:49:20.594Z,1003.11
2022-11-06T11:50:20.536Z,1003.10
2022-11-06T11:51:20.537Z,1003.03
2022-11-06T11:52:20.552Z,1002.98
2022-11-06T11:53:20.531Z,1002.88
2022-11-06T11:54:20.517Z,1002.86
2022-11-06T11:55:20.497Z,1002.86
2022-11-06T11:56:42.527Z,1002.84
2022-11-06T11:57:21.468Z,1002.80
2022-11-06T11:58:20.450Z,1002.77
2022-11-06T11:59:20.466Z,1002.78
2022-11-06T12:00:20.440Z,1002.74
2022-11-06T12:01:20.446Z,1002.70
2022-11-06T12:02:26.589Z,1002.71
2022-11-06T12:03:20.505Z,1002.78
2022-11-06T12:04:20.389Z,1002.69
2022-11-06T12:05:20.401Z,1002.71